sensor_id;sensor_type;location;lat;lon;timestamp;pressure;altitude;pressure_sealevel;temperature;humidity
15646;BME280;7922;43.622;1.476;2023-01-28T00:02:22;100613.66;;;2.97;89.80
15646;BME280;7922;43.622;1.476;2023-01-28T00:04:47;100569.19;;;2.72;89.87
15646;BME280;7922;43.622;1.476;2023-01-28T00:07:13;100524.78;;;2.38;90.22
15646;BME280;7922;43.622;1.476;2023-01-28T00:09:38;100544.81;;;2.53;89.56
15646;BME280;7922;43.622;1.476;2023-01-28T00:12:04;100567.47;;;2.62;90.18
15646;BME280;7922;43.622;1.476;2023-01-28T00:14:29;100539.59;;;2.44;89.82
15646;BME280;7922;43.622;1.476;2023-01-28T00:16:54;100540.47;;;2.52;90.07
15646;BME280;7922;43.622;1.476;2023-01-28T00:19:20;100450.75;;;1.98;90.09
15646;BME280;7922;43.622;1.476;2023-01-28T00:21:45;100589.25;;;2.75;90.40
15646;BME280;7922;43.622;1.476;2023-01-28T00:24:10;100578.78;;;2.64;89.70
15646;BME280;7922;43.622;1.476;2023-01-28T00:26:35;100588.38;;;2.71;89.92
15646;BME280;7922;43.622;1.476;2023-01-28T00:29:01;100458.56;;;1.95;89.32
15646;BME280;7922;43.622;1.476;2023-01-28T00:31:28;100518.66;;;2.32;89.46
15646;BME280;7922;43.622;1.476;2023-01-28T00:33:55;100455.09;;;1.98;89.64
15646;BME280;7922;43.622;1.476;2023-01-28T00:36:22;100451.63;;;1.94;89.02
15646;BME280;7922;43.622;1.476;2023-01-28T00:38:56;100492.53;;;2.20;89.47
15646;BME280;7922;43.622;1.476;2023-01-28T00:41:24;100562.22;;;2.60;88.99
15646;BME280;7922;43.622;1.476;2023-01-28T00:43:50;100496.00;;;2.25;89.11
15646;BME280;7922;43.622;1.476;2023-01-28T00:46:16;100415.91;;;1.84;88.95
15646;BME280;7922;43.622;1.476;2023-01-28T00:48:42;100566.59;;;2.74;89.38
15646;BME280;7922;43.622;1.476;2023-01-28T00:51:10;100454.22;;;2.06;88.97
15646;BME280;7922;43.622;1.476;2023-01-28T00:53:36;100546.56;;;2.53;89.41
15646;BME280;7922;43.622;1.476;2023-01-28T00:56:03;100542.19;;;2.53;89.58
15646;BME280;7922;43.622;1.476;2023-01-28T00:58:28;100520.41;;;2.37;89.05
15646;BME280;7922;43.622;1.476;2023-01-28T01:00:53;100544.81;;;2.50;89.40
15646;BME280;7922;43.622;1.476;2023-01-28T01:03:19;100544.81;;;2.44;89.30
15646;BME280;7922;43.622;1.476;2023-01-28T01:05:45;100553.53;;;2.52;89.56
15646;BME280;7922;43.622;1.476;2023-01-28T01:08:10;100484.69;;;2.13;88.88
15646;BME280;7922;43.622;1.476;2023-01-28T01:10:37;100540.44;;;2.46;89.09
15646;BME280;7922;43.622;1.476;2023-01-28T01:13:03;100466.41;;;2.03;88.52
15646;BME280;7922;43.622;1.476;2023-01-28T01:15:29;100434.22;;;1.85;88.95
15646;BME280;7922;43.622;1.476;2023-01-28T01:17:54;100437.69;;;1.87;89.09
15646;BME280;7922;43.622;1.476;2023-01-28T01:20:22;100506.47;;;2.28;88.67
15646;BME280;7922;43.622;1.476;2023-01-28T01:22:48;100555.28;;;2.46;89.13
15646;BME280;7922;43.622;1.476;2023-01-28T01:25:15;100515.19;;;2.30;88.94
15646;BME280;7922;43.622;1.476;2023-01-28T01:27:41;100582.28;;;2.75;88.45
15646;BME280;7922;43.622;1.476;2023-01-28T01:30:08;100417.66;;;1.73;88.86
15646;BME280;7922;43.622;1.476;2023-01-28T01:32:35;100574.44;;;2.63;88.90
15646;BME280;7922;43.622;1.476;2023-01-28T01:35:01;100560.50;;;2.46;88.39
15646;BME280;7922;43.622;1.476;2023-01-28T01:37:27;100595.34;;;2.72;88.05
15646;BME280;7922;43.622;1.476;2023-01-28T01:39:52;100564.00;;;2.55;87.88
15646;BME280;7922;43.622;1.476;2023-01-28T01:42:18;100574.47;;;2.61;87.92
15646;BME280;7922;43.622;1.476;2023-01-28T01:45:06;100596.22;;;2.79;88.11
15646;BME280;7922;43.622;1.476;2023-01-28T01:47:46;100555.28;;;2.46;87.78
15646;BME280;7922;43.622;1.476;2023-01-28T01:50:27;100614.53;;;2.76;88.04
15646;BME280;7922;43.622;1.476;2023-01-28T01:52:55;100584.91;;;2.55;87.96
15646;BME280;7922;43.622;1.476;2023-01-28T01:55:23;100616.28;;;2.78;87.68
15646;BME280;7922;43.622;1.476;2023-01-28T01:57:51;100564.88;;;2.51;87.97
15646;BME280;7922;43.622;1.476;2023-01-28T02:00:19;100496.91;;;2.04;87.86
15646;BME280;7922;43.622;1.476;2023-01-28T02:02:47;100484.69;;;2.00;87.88
15646;BME280;7922;43.622;1.476;2023-01-28T02:05:16;100449.00;;;1.88;88.01
15646;BME280;7922;43.622;1.476;2023-01-28T02:07:44;100550.91;;;2.52;87.63
15646;BME280;7922;43.622;1.476;2023-01-28T02:10:10;100256.63;;;0.67;88.16
15646;BME280;7922;43.622;1.476;2023-01-28T02:12:39;100468.16;;;1.99;88.02
15646;BME280;7922;43.622;1.476;2023-01-28T02:15:10;100430.72;;;1.76;87.93
15646;BME280;7922;43.622;1.476;2023-01-28T02:17:36;100544.81;;;2.35;87.71
15646;BME280;7922;43.622;1.476;2023-01-28T02:20:10;100611.94;;;2.74;87.59
15646;BME280;7922;43.622;1.476;2023-01-28T02:28:40;100626.75;;;2.75;87.45
15646;BME280;7922;43.622;1.476;2023-01-28T02:39:33;100500.38;;;1.98;86.61
15646;BME280;7922;43.622;1.476;2023-01-28T02:42:13;100629.38;;;2.74;86.72
15646;BME280;7922;43.622;1.476;2023-01-28T02:44:41;100480.34;;;1.86;86.37
15646;BME280;7922;43.622;1.476;2023-01-28T02:47:10;100566.59;;;2.35;86.49
15646;BME280;7922;43.622;1.476;2023-01-28T02:49:45;100563.13;;;2.44;86.06
15646;BME280;7922;43.622;1.476;2023-01-28T02:55:31;100625.88;;;2.75;86.31
15646;BME280;7922;43.622;1.476;2023-01-28T02:58:31;100506.50;;;2.11;85.32
15646;BME280;7922;43.622;1.476;2023-01-28T03:01:14;100598.84;;;2.60;85.13
15646;BME280;7922;43.622;1.476;2023-01-28T03:06:14;100579.69;;;2.52;84.89
15646;BME280;7922;43.622;1.476;2023-01-28T03:08:50;100624.16;;;2.80;84.89
15646;BME280;7922;43.622;1.476;2023-01-28T03:11:16;100503.84;;;2.03;84.64
15646;BME280;7922;43.622;1.476;2023-01-28T03:13:43;100604.94;;;2.56;84.38
15646;BME280;7922;43.622;1.476;2023-01-28T03:16:09;100482.97;;;1.89;84.38
15646;BME280;7922;43.622;1.476;2023-01-28T03:18:44;100633.75;;;2.76;84.92
15646;BME280;7922;43.622;1.476;2023-01-28T03:21:21;100510.84;;;2.01;84.74
15646;BME280;7922;43.622;1.476;2023-01-28T03:23:59;100599.75;;;2.55;84.70
15646;BME280;7922;43.622;1.476;2023-01-28T03:26:27;100598.00;;;2.48;84.41
15646;BME280;7922;43.622;1.476;2023-01-28T03:29:00;100592.75;;;2.48;84.62
15646;BME280;7922;43.622;1.476;2023-01-28T03:31:30;100597.09;;;2.50;84.32
15646;BME280;7922;43.622;1.476;2023-01-28T03:33:57;100564.84;;;2.31;83.84
15646;BME280;7922;43.622;1.476;2023-01-28T03:36:24;100578.81;;;2.44;83.97
15646;BME280;7922;43.622;1.476;2023-01-28T03:38:50;100504.72;;;2.02;83.84
15646;BME280;7922;43.622;1.476;2023-01-28T03:41:20;100559.63;;;2.31;83.51
15646;BME280;7922;43.622;1.476;2023-01-28T03:43:47;100502.13;;;2.01;83.99
15646;BME280;7922;43.622;1.476;2023-01-28T03:46:13;100586.66;;;2.41;82.95
15646;BME280;7922;43.622;1.476;2023-01-28T03:48:38;100611.06;;;2.57;82.90
15646;BME280;7922;43.622;1.476;2023-01-28T03:51:03;100518.66;;;2.01;82.64
15646;BME280;7922;43.622;1.476;2023-01-28T03:53:29;100585.75;;;2.47;82.78
15646;BME280;7922;43.622;1.476;2023-01-28T03:55:54;100594.47;;;2.42;82.67
15646;BME280;7922;43.622;1.476;2023-01-28T03:58:20;100659.91;;;2.76;82.51
15646;BME280;7922;43.622;1.476;2023-01-28T04:00:46;100546.56;;;2.16;82.13
15646;BME280;7922;43.622;1.476;2023-01-28T04:03:17;100386.28;;;1.25;81.78
15646;BME280;7922;43.622;1.476;2023-01-28T04:05:59;100609.34;;;2.54;81.54
15646;BME280;7922;43.622;1.476;2023-01-28T04:08:25;100619.75;;;2.57;81.20
15646;BME280;7922;43.622;1.476;2023-01-28T04:10:51;100618.03;;;2.56;81.79
15646;BME280;7922;43.622;1.476;2023-01-28T04:13:17;100536.97;;;2.09;81.66
15646;BME280;7922;43.622;1.476;2023-01-28T04:15:42;100538.69;;;2.10;81.48
15646;BME280;7922;43.622;1.476;2023-01-28T04:18:08;100521.28;;;1.98;81.60
15646;BME280;7922;43.622;1.476;2023-01-28T04:20:34;100516.03;;;1.95;81.93
15646;BME280;7922;43.622;1.476;2023-01-28T04:22:59;100539.56;;;2.10;82.25
15646;BME280;7922;43.622;1.476;2023-01-28T04:25:24;100608.44;;;2.38;82.33
15646;BME280;7922;43.622;1.476;2023-01-28T04:27:50;100510.81;;;1.92;82.68
15646;BME280;7922;43.622;1.476;2023-01-28T04:30:15;100555.28;;;2.15;83.10
15646;BME280;7922;43.622;1.476;2023-01-28T04:32:41;100617.16;;;2.50;82.17
15646;BME280;7922;43.622;1.476;2023-01-28T04:35:06;100599.72;;;2.33;82.88
15646;BME280;7922;43.622;1.476;2023-01-28T04:37:32;100567.44;;;2.13;83.02
15646;BME280;7922;43.622;1.476;2023-01-28T04:39:57;100630.22;;;2.48;82.52
15646;BME280;7922;43.622;1.476;2023-01-28T04:42:22;100637.22;;;2.52;83.25
15646;BME280;7922;43.622;1.476;2023-01-28T04:44:48;100664.22;;;2.57;83.47
15646;BME280;7922;43.622;1.476;2023-01-28T04:47:13;100634.56;;;2.46;83.39
15646;BME280;7922;43.622;1.476;2023-01-28T04:49:38;100626.72;;;2.38;83.48
15646;BME280;7922;43.622;1.476;2023-01-28T04:52:04;100514.28;;;1.73;83.31
15646;BME280;7922;43.622;1.476;2023-01-28T04:54:29;100486.38;;;1.58;84.01
15646;BME280;7922;43.622;1.476;2023-01-28T04:56:54;100653.75;;;2.50;83.87
15646;BME280;7922;43.622;1.476;2023-01-28T04:59:19;100633.72;;;2.36;83.69
15646;BME280;7922;43.622;1.476;2023-01-28T05:01:45;100660.72;;;2.49;84.21
15646;BME280;7922;43.622;1.476;2023-01-28T05:04:10;100645.03;;;2.37;84.32
15646;BME280;7922;43.622;1.476;2023-01-28T05:06:35;100495.06;;;1.51;83.97
15646;BME280;7922;43.622;1.476;2023-01-28T05:09:00;100633.72;;;2.33;84.23
15646;BME280;7922;43.622;1.476;2023-01-28T05:11:26;100658.97;;;2.47;84.36
15646;BME280;7922;43.622;1.476;2023-01-28T05:13:53;100556.09;;;1.88;84.53
15646;BME280;7922;43.622;1.476;2023-01-28T05:16:19;100703.47;;;2.68;84.76
15646;BME280;7922;43.622;1.476;2023-01-28T05:18:44;100641.56;;;2.29;84.03
15646;BME280;7922;43.622;1.476;2023-01-28T05:21:09;100541.25;;;1.76;84.48
15646;BME280;7922;43.622;1.476;2023-01-28T05:23:35;100640.63;;;2.17;84.17
15646;BME280;7922;43.622;1.476;2023-01-28T05:26:00;100688.63;;;2.53;84.05
15646;BME280;7922;43.622;1.476;2023-01-28T05:28:25;100637.16;;;2.19;83.78
15646;BME280;7922;43.622;1.476;2023-01-28T05:30:50;100661.59;;;2.33;83.51
15646;BME280;7922;43.622;1.476;2023-01-28T05:33:16;100630.19;;;2.11;83.37
15646;BME280;7922;43.622;1.476;2023-01-28T05:35:41;100531.66;;;1.60;84.08
15646;BME280;7922;43.622;1.476;2023-01-28T05:38:07;100686.00;;;2.46;84.29
15646;BME280;7922;43.622;1.476;2023-01-28T05:40:32;100632.75;;;2.07;84.58
15646;BME280;7922;43.622;1.476;2023-01-28T05:42:58;100600.50;;;1.96;84.55
15646;BME280;7922;43.622;1.476;2023-01-28T05:45:23;100568.25;;;1.80;85.01
15646;BME280;7922;43.622;1.476;2023-01-28T05:47:48;100581.31;;;1.84;85.25
15646;BME280;7922;43.622;1.476;2023-01-28T05:50:14;100665.91;;;2.19;85.71
15646;BME280;7922;43.622;1.476;2023-01-28T05:52:39;100536.84;;;1.51;85.51
15646;BME280;7922;43.622;1.476;2023-01-28T05:55:05;100637.13;;;2.12;86.10
15646;BME280;7922;43.622;1.476;2023-01-28T05:57:31;100651.97;;;2.16;86.23
15646;BME280;7922;43.622;1.476;2023-01-28T05:59:56;100681.63;;;2.34;86.43
15646;BME280;7922;43.622;1.476;2023-01-28T06:02:21;100560.38;;;1.63;85.90
15646;BME280;7922;43.622;1.476;2023-01-28T06:04:46;100550.75;;;1.51;85.86
15646;BME280;7922;43.622;1.476;2023-01-28T06:07:12;100658.94;;;2.14;86.74
15646;BME280;7922;43.622;1.476;2023-01-28T06:09:37;100579.56;;;1.73;85.86
15646;BME280;7922;43.622;1.476;2023-01-28T06:12:03;100573.44;;;1.71;86.06
15646;BME280;7922;43.622;1.476;2023-01-28T06:14:28;100618.78;;;1.88;86.45
15646;BME280;7922;43.622;1.476;2023-01-28T06:16:53;100672.88;;;2.20;86.17
15646;BME280;7922;43.622;1.476;2023-01-28T06:19:19;100603.97;;;1.82;86.18
15646;BME280;7922;43.622;1.476;2023-01-28T06:21:44;100542.03;;;1.40;85.96
15646;BME280;7922;43.622;1.476;2023-01-28T06:24:10;100601.34;;;1.76;85.74
15646;BME280;7922;43.622;1.476;2023-01-28T06:26:36;100603.09;;;1.79;86.18
15646;BME280;7922;43.622;1.476;2023-01-28T06:29:01;100719.97;;;2.33;85.94
15646;BME280;7922;43.622;1.476;2023-01-28T06:31:26;100703.38;;;2.27;86.31
15646;BME280;7922;43.622;1.476;2023-01-28T06:33:51;100734.78;;;2.37;86.66
15646;BME280;7922;43.622;1.476;2023-01-28T06:36:17;100660.63;;;2.00;85.88
15646;BME280;7922;43.622;1.476;2023-01-28T06:38:42;100664.97;;;2.03;86.23
15646;BME280;7922;43.622;1.476;2023-01-28T06:41:07;100706.88;;;2.18;86.48
15646;BME280;7922;43.622;1.476;2023-01-28T06:43:32;100752.25;;;2.52;86.33
15646;BME280;7922;43.622;1.476;2023-01-28T06:45:58;100724.31;;;2.30;85.88
15646;BME280;7922;43.622;1.476;2023-01-28T06:48:25;100720.78;;;2.25;86.29
15646;BME280;7922;43.622;1.476;2023-01-28T06:50:51;100740.00;;;2.36;86.52
15646;BME280;7922;43.622;1.476;2023-01-28T06:53:17;100610.88;;;1.65;86.62
15646;BME280;7922;43.622;1.476;2023-01-28T06:55:42;100743.50;;;2.39;86.71
15646;BME280;7922;43.622;1.476;2023-01-28T06:58:08;100759.22;;;2.46;86.02
15646;BME280;7922;43.622;1.476;2023-01-28T07:00:33;100698.09;;;2.04;86.41
15646;BME280;7922;43.622;1.476;2023-01-28T07:02:59;100703.34;;;2.11;85.27
15646;BME280;7922;43.622;1.476;2023-01-28T07:05:24;100619.53;;;1.55;85.83
15646;BME280;7922;43.622;1.476;2023-01-28T07:07:50;100605.59;;;1.51;86.49
15646;BME280;7922;43.622;1.476;2023-01-28T07:10:15;100706.78;;;2.06;86.00
15646;BME280;7922;43.622;1.476;2023-01-28T07:12:40;100632.63;;;1.67;85.65
15646;BME280;7922;43.622;1.476;2023-01-28T07:15:06;100737.34;;;2.21;85.26
15646;BME280;7922;43.622;1.476;2023-01-28T07:17:32;100650.06;;;1.73;85.24
15646;BME280;7922;43.622;1.476;2023-01-28T07:19:57;100601.22;;;1.47;85.22
15646;BME280;7922;43.622;1.476;2023-01-28T07:22:22;100743.44;;;2.18;85.45
15646;BME280;7922;43.622;1.476;2023-01-28T07:24:48;100609.91;;;1.43;85.46
15646;BME280;7922;43.622;1.476;2023-01-28T07:27:13;100776.66;;;2.44;84.74
15646;BME280;7922;43.622;1.476;2023-01-28T07:29:39;100747.78;;;2.16;84.92
15646;BME280;7922;43.622;1.476;2023-01-28T07:32:04;100768.75;;;2.30;84.96
15646;BME280;7922;43.622;1.476;2023-01-28T07:34:29;100656.09;;;1.62;84.99
15646;BME280;7922;43.622;1.476;2023-01-28T07:36:55;100792.31;;;2.42;84.85
15646;BME280;7922;43.622;1.476;2023-01-28T07:39:20;100760.88;;;2.24;84.40
15646;BME280;7922;43.622;1.476;2023-01-28T07:41:45;100709.34;;;1.90;84.60
15646;BME280;7922;43.622;1.476;2023-01-28T07:44:10;100773.09;;;2.28;84.35
15646;BME280;7922;43.622;1.476;2023-01-28T07:46:36;100678.78;;;1.73;84.44
15646;BME280;7922;43.622;1.476;2023-01-28T07:49:01;100658.72;;;1.61;83.91
15646;BME280;7922;43.622;1.476;2023-01-28T07:51:26;100806.28;;;2.41;83.47
15646;BME280;7922;43.622;1.476;2023-01-28T07:53:52;100666.56;;;1.62;83.88
15646;BME280;7922;43.622;1.476;2023-01-28T07:56:17;100814.13;;;2.49;83.32
15646;BME280;7922;43.622;1.476;2023-01-28T07:58:42;100689.22;;;1.68;83.92
15646;BME280;7922;43.622;1.476;2023-01-28T08:01:07;100787.94;;;2.29;84.51
15646;BME280;7922;43.622;1.476;2023-01-28T08:03:33;100819.34;;;2.46;84.37
15646;BME280;7922;43.622;1.476;2023-01-28T08:05:58;100840.34;;;2.59;84.79
15646;BME280;7922;43.622;1.476;2023-01-28T08:08:24;100790.44;;;2.13;85.26
15646;BME280;7922;43.622;1.476;2023-01-28T08:10:50;100804.47;;;2.26;85.36
15646;BME280;7922;43.622;1.476;2023-01-28T08:13:16;100799.22;;;2.25;85.35
15646;BME280;7922;43.622;1.476;2023-01-28T08:15:42;100683.09;;;1.60;85.31
15646;BME280;7922;43.622;1.476;2023-01-28T08:18:10;100793.97;;;2.15;85.30
15646;BME280;7922;43.622;1.476;2023-01-28T08:20:35;100778.28;;;2.15;85.64
15646;BME280;7922;43.622;1.476;2023-01-28T08:23:07;100861.25;;;2.58;85.74
15646;BME280;7922;43.622;1.476;2023-01-28T08:25:34;100841.19;;;2.51;86.30
15646;BME280;7922;43.622;1.476;2023-01-28T08:27:59;100781.78;;;2.14;86.30
15646;BME280;7922;43.622;1.476;2023-01-28T08:30:24;100821.09;;;2.45;85.64
15646;BME280;7922;43.622;1.476;2023-01-28T08:32:50;100818.44;;;2.37;85.80
15646;BME280;7922;43.622;1.476;2023-01-28T08:35:15;100740.69;;;1.90;86.06
15646;BME280;7922;43.622;1.476;2023-01-28T08:37:40;100833.31;;;2.48;85.91
15646;BME280;7922;43.622;1.476;2023-01-28T08:40:06;100816.72;;;2.42;86.06
15646;BME280;7922;43.622;1.476;2023-01-28T08:42:31;100804.50;;;2.37;85.05
15646;BME280;7922;43.622;1.476;2023-01-28T08:44:57;100809.72;;;2.34;85.28
15646;BME280;7922;43.622;1.476;2023-01-28T08:47:22;100821.97;;;2.44;84.96
15646;BME280;7922;43.622;1.476;2023-01-28T08:49:47;100814.13;;;2.46;84.80
15646;BME280;7922;43.622;1.476;2023-01-28T08:52:12;100829.00;;;2.63;84.21
15646;BME280;7922;43.622;1.476;2023-01-28T08:54:38;100769.59;;;2.20;84.25
15646;BME280;7922;43.622;1.476;2023-01-28T08:57:03;100790.47;;;2.21;84.52
15646;BME280;7922;43.622;1.476;2023-01-28T08:59:28;100890.13;;;2.81;84.46
15646;BME280;7922;43.622;1.476;2023-01-28T09:01:54;100842.06;;;2.54;84.86
15646;BME280;7922;43.622;1.476;2023-01-28T09:04:19;100750.34;;;2.04;84.49
15646;BME280;7922;43.622;1.476;2023-01-28T09:06:44;100779.13;;;2.17;83.99
15646;BME280;7922;43.622;1.476;2023-01-28T09:09:09;100860.38;;;2.54;84.36
15646;BME280;7922;43.622;1.476;2023-01-28T09:11:35;100886.59;;;2.79;83.65
15646;BME280;7922;43.622;1.476;2023-01-28T09:14:00;100798.31;;;2.16;83.04
15646;BME280;7922;43.622;1.476;2023-01-28T09:16:25;100857.78;;;2.65;83.17
15646;BME280;7922;43.622;1.476;2023-01-28T09:18:51;100850.75;;;2.52;82.72
15646;BME280;7922;43.622;1.476;2023-01-28T09:21:16;100793.97;;;2.15;83.16
15646;BME280;7922;43.622;1.476;2023-01-28T09:23:42;100878.72;;;2.67;83.38
15646;BME280;7922;43.622;1.476;2023-01-28T09:26:07;100911.94;;;2.86;83.24
15646;BME280;7922;43.622;1.476;2023-01-28T09:28:32;100857.78;;;2.65;83.28
15646;BME280;7922;43.622;1.476;2023-01-28T09:31:06;100777.44;;;2.18;82.98
15646;BME280;7922;43.622;1.476;2023-01-28T09:33:32;100913.72;;;2.95;82.63
15646;BME280;7922;43.622;1.476;2023-01-28T09:36:02;100904.94;;;2.86;82.50
15646;BME280;7922;43.622;1.476;2023-01-28T09:38:31;100811.44;;;2.30;83.00
15646;BME280;7922;43.622;1.476;2023-01-28T09:40:56;100854.28;;;2.60;82.93
15646;BME280;7922;43.622;1.476;2023-01-28T09:44:19;100914.63;;;3.07;82.40
15646;BME280;7922;43.622;1.476;2023-01-28T09:46:15;100870.03;;;2.74;83.10
15646;BME280;7922;43.622;1.476;2023-01-28T09:48:44;100848.16;;;2.53;82.40
15646;BME280;7922;43.622;1.476;2023-01-28T09:51:30;100925.09;;;2.98;82.89
15646;BME280;7922;43.622;1.476;2023-01-28T09:53:59;100876.16;;;2.79;82.14
15646;BME280;7922;43.622;1.476;2023-01-28T09:56:40;100836.88;;;2.67;82.25
15646;BME280;7922;43.622;1.476;2023-01-28T09:59:17;100877.97;;;2.98;81.42
15646;BME280;7922;43.622;1.476;2023-01-28T10:04:39;100898.94;;;3.23;81.67
15646;BME280;7922;43.622;1.476;2023-01-28T10:10:02;100908.59;;;3.37;81.06
15646;BME280;7922;43.622;1.476;2023-01-28T10:12:54;100913.81;;;3.28;80.59
15646;BME280;7922;43.622;1.476;2023-01-28T10:15:38;100909.44;;;3.30;81.08
15646;BME280;7922;43.622;1.476;2023-01-28T10:18:12;100875.38;;;3.18;81.07
15646;BME280;7922;43.622;1.476;2023-01-28T10:20:48;100919.09;;;3.47;79.84
15646;BME280;7922;43.622;1.476;2023-01-28T10:23:25;100922.56;;;3.47;80.48
15646;BME280;7922;43.622;1.476;2023-01-28T10:25:53;100890.25;;;3.31;80.48
15646;BME280;7922;43.622;1.476;2023-01-28T10:28:23;100892.03;;;3.46;80.46
15646;BME280;7922;43.622;1.476;2023-01-28T10:30:50;100882.41;;;3.27;79.82
15646;BME280;7922;43.622;1.476;2023-01-28T10:35:43;100892.03;;;3.46;79.01
15646;BME280;7922;43.622;1.476;2023-01-28T10:38:12;100845.72;;;3.16;79.22
15646;BME280;7922;43.622;1.476;2023-01-28T10:40:40;100899.00;;;3.55;78.85
15646;BME280;7922;43.622;1.476;2023-01-28T10:43:06;100855.34;;;3.23;78.92
15646;BME280;7922;43.622;1.476;2023-01-28T10:45:36;100896.38;;;3.52;79.27
15646;BME280;7922;43.622;1.476;2023-01-28T10:48:17;100870.22;;;3.53;78.42
15646;BME280;7922;43.622;1.476;2023-01-28T10:50:50;100857.06;;;3.17;78.28
15646;BME280;7922;43.622;1.476;2023-01-28T10:53:15;100906.88;;;3.62;77.97
15646;BME280;7922;43.622;1.476;2023-01-28T10:55:51;100934.84;;;3.74;77.59
15646;BME280;7922;43.622;1.476;2023-01-28T10:58:23;100870.16;;;3.21;76.52
15646;BME280;7922;43.622;1.476;2023-01-28T11:00:53;100947.03;;;3.54;76.53
15646;BME280;7922;43.622;1.476;2023-01-28T11:03:22;100934.81;;;3.51;75.72
15646;BME280;7922;43.622;1.476;2023-01-28T11:05:53;100836.13;;;3.06;75.74
15646;BME280;7922;43.622;1.476;2023-01-28T11:08:19;100885.03;;;3.34;75.68
15646;BME280;7922;43.622;1.476;2023-01-28T11:10:45;100808.16;;;2.85;75.67
15646;BME280;7922;43.622;1.476;2023-01-28T11:13:28;100738.28;;;2.41;75.54
15646;BME280;7922;43.622;1.476;2023-01-28T11:16:05;100891.97;;;3.22;76.56
15646;BME280;7922;43.622;1.476;2023-01-28T11:18:45;100868.41;;;3.22;76.68
15646;BME280;7922;43.622;1.476;2023-01-28T11:21:30;100869.31;;;3.33;77.10
15646;BME280;7922;43.622;1.476;2023-01-28T11:24:01;100844.88;;;3.25;77.65
15646;BME280;7922;43.622;1.476;2023-01-28T11:26:31;100865.81;;;3.28;77.52
15646;BME280;7922;43.622;1.476;2023-01-28T11:28:58;100787.19;;;2.71;78.62
15646;BME280;7922;43.622;1.476;2023-01-28T11:31:24;100773.22;;;2.66;78.56
15646;BME280;7922;43.622;1.476;2023-01-28T11:36:20;100858.84;;;3.27;79.21
15646;BME280;7922;43.622;1.476;2023-01-28T11:38:57;100848.34;;;3.14;78.29
15646;BME280;7922;43.622;1.476;2023-01-28T11:41:31;100888.50;;;3.32;78.80
15646;BME280;7922;43.622;1.476;2023-01-28T11:43:59;100723.50;;;2.48;79.53
15646;BME280;7922;43.622;1.476;2023-01-28T11:49:42;100882.41;;;3.36;80.37
15646;BME280;7922;43.622;1.476;2023-01-28T12:02:48;100878.06;;;3.55;79.61
15646;BME280;7922;43.622;1.476;2023-01-28T12:08:20;100808.19;;;3.19;79.89
15646;BME280;7922;43.622;1.476;2023-01-28T12:13:36;100870.19;;;3.62;79.08
15646;BME280;7922;43.622;1.476;2023-01-28T12:24:57;100857.09;;;3.41;80.09
15646;BME280;7922;43.622;1.476;2023-01-28T12:33:50;100846.63;;;3.44;79.67
15646;BME280;7922;43.622;1.476;2023-01-28T12:41:39;100688.66;;;2.65;78.81
15646;BME280;7922;43.622;1.476;2023-01-28T12:44:14;100779.44;;;3.23;78.46
15646;BME280;7922;43.622;1.476;2023-01-28T12:46:54;100693.00;;;2.53;78.65
15646;BME280;7922;43.622;1.476;2023-01-28T12:49:29;100802.09;;;3.23;78.27
15646;BME280;7922;43.622;1.476;2023-01-28T12:55:13;100704.34;;;2.67;77.42
15646;BME280;7922;43.622;1.476;2023-01-28T12:57:18;100709.59;;;2.76;76.43
15646;BME280;7922;43.622;1.476;2023-01-28T12:59:50;100670.31;;;2.50;75.35
15646;BME280;7922;43.622;1.476;2023-01-28T13:02:22;100699.13;;;2.75;74.72
15646;BME280;7922;43.622;1.476;2023-01-28T13:04:55;100807.31;;;3.52;73.33
15646;BME280;7922;43.622;1.476;2023-01-28T13:07:37;100761.94;;;3.14;72.87
15646;BME280;7922;43.622;1.476;2023-01-28T13:10:21;100811.69;;;3.44;72.58
15646;BME280;7922;43.622;1.476;2023-01-28T13:12:49;100698.25;;;2.79;72.26
15646;BME280;7922;43.622;1.476;2023-01-28T13:15:17;100761.97;;;3.18;71.67
15646;BME280;7922;43.622;1.476;2023-01-28T13:18:03;100675.59;;;2.84;70.76
15646;BME280;7922;43.622;1.476;2023-01-28T13:20:49;100768.94;;;3.23;70.78
15646;BME280;7922;43.622;1.476;2023-01-28T13:25:54;100793.38;;;3.34;71.18
15646;BME280;7922;43.622;1.476;2023-01-28T13:28:38;100775.03;;;3.11;71.98
15646;BME280;7922;43.622;1.476;2023-01-28T13:31:10;100804.72;;;3.27;72.29
15646;BME280;7922;43.622;1.476;2023-01-28T13:33:40;100700.88;;;2.82;71.93
15646;BME280;7922;43.622;1.476;2023-01-28T13:36:20;100794.22;;;3.15;72.48
15646;BME280;7922;43.622;1.476;2023-01-28T13:38:48;100750.59;;;2.93;72.03
15646;BME280;7922;43.622;1.476;2023-01-28T13:41:23;100438.41;;;1.16;71.17
15646;BME280;7922;43.622;1.476;2023-01-28T13:43:49;100706.97;;;2.72;71.44
15646;BME280;7922;43.622;1.476;2023-01-28T13:46:28;100709.56;;;2.72;72.13
15646;BME280;7922;43.622;1.476;2023-01-28T13:48:57;100823.91;;;3.29;71.67
15646;BME280;7922;43.622;1.476;2023-01-28T13:51:27;100830.88;;;3.30;71.10
15646;BME280;7922;43.622;1.476;2023-01-28T13:54:01;100681.66;;;2.45;70.23
15646;BME280;7922;43.622;1.476;2023-01-28T13:56:36;100683.34;;;2.32;70.40
15646;BME280;7922;43.622;1.476;2023-01-28T14:10:03;100843.97;;;3.30;70.96
15646;BME280;7922;43.622;1.476;2023-01-28T14:17:43;100804.69;;;3.15;70.27
15646;BME280;7922;43.622;1.476;2023-01-28T14:20:38;100776.78;;;2.91;70.06
15646;BME280;7922;43.622;1.476;2023-01-28T14:23:02;100778.50;;;2.89;70.75
15646;BME280;7922;43.622;1.476;2023-01-28T14:25:36;100795.97;;;3.04;71.47
15646;BME280;7922;43.622;1.476;2023-01-28T14:28:04;100709.53;;;2.53;71.43
15646;BME280;7922;43.622;1.476;2023-01-28T14:31:03;100854.47;;;3.32;71.65
15646;BME280;7922;43.622;1.476;2023-01-28T14:33:30;100824.75;;;3.08;71.51
15646;BME280;7922;43.622;1.476;2023-01-28T14:35:56;100712.16;;;2.47;72.05
15646;BME280;7922;43.622;1.476;2023-01-28T14:38:23;100819.53;;;3.02;72.20
15646;BME280;7922;43.622;1.476;2023-01-28T14:40:51;100835.22;;;3.02;71.99
15646;BME280;7922;43.622;1.476;2023-01-28T14:43:22;100730.47;;;2.53;72.11
15646;BME280;7922;43.622;1.476;2023-01-28T14:48:47;100866.69;;;3.21;73.45
15646;BME280;7922;43.622;1.476;2023-01-28T14:51:32;100860.56;;;3.29;74.27
15646;BME280;7922;43.622;1.476;2023-01-28T14:59:45;100834.34;;;2.99;74.91